sensor_id;sensor_type;location;lat;lon;timestamp;temperature;humidity
7254;DHT22;4060;49.186;9.226;2023-12-04T00:01:49;4.00;58.90
7254;DHT22;4060;49.186;9.226;2023-12-04T00:04:19;4.00;58.80
7254;DHT22;4060;49.186;9.226;2023-12-04T00:06:48;4.00;58.80
7254;DHT22;4060;49.186;9.226;2023-12-04T00:09:17;3.90;58.70
7254;DHT22;4060;49.186;9.226;2023-12-04T00:11:47;4.00;58.80
7254;DHT22;4060;49.186;9.226;2023-12-04T00:14:16;3.90;58.80
7254;DHT22;4060;49.186;9.226;2023-12-04T00:16:47;4.00;58.80
7254;DHT22;4060;49.186;9.226;2023-12-04T00:19:16;3.90;58.80
7254;DHT22;4060;49.186;9.226;2023-12-04T00:21:46;3.90;58.80
7254;DHT22;4060;49.186;9.226;2023-12-04T00:24:15;3.90;58.80
7254;DHT22;4060;49.186;9.226;2023-12-04T00:26:44;3.90;58.80
7254;DHT22;4060;49.186;9.226;2023-12-04T00:29:14;3.90;58.80
7254;DHT22;4060;49.186;9.226;2023-12-04T00:31:44;3.90;58.70
7254;DHT22;4060;49.186;9.226;2023-12-04T00:34:17;3.90;58.70
7254;DHT22;4060;49.186;9.226;2023-12-04T00:36:46;3.90;58.70
7254;DHT22;4060;49.186;9.226;2023-12-04T00:39:16;3.90;58.70
7254;DHT22;4060;49.186;9.226;2023-12-04T00:41:45;3.90;58.70
7254;DHT22;4060;49.186;9.226;2023-12-04T00:44:15;3.90;58.70
7254;DHT22;4060;49.186;9.226;2023-12-04T00:46:44;3.90;58.70
7254;DHT22;4060;49.186;9.226;2023-12-04T00:49:16;3.90;58.70
7254;DHT22;4060;49.186;9.226;2023-12-04T00:51:45;3.90;58.70
7254;DHT22;4060;49.186;9.226;2023-12-04T00:54:15;3.90;58.70
7254;DHT22;4060;49.186;9.226;2023-12-04T00:56:44;3.80;58.60
7254;DHT22;4060;49.186;9.226;2023-12-04T00:59:13;3.80;58.60
7254;DHT22;4060;49.186;9.226;2023-12-04T01:01:43;3.80;58.60
7254;DHT22;4060;49.186;9.226;2023-12-04T01:04:12;3.80;58.60
7254;DHT22;4060;49.186;9.226;2023-12-04T01:06:44;3.80;58.60
7254;DHT22;4060;49.186;9.226;2023-12-04T01:09:13;3.80;58.60
7254;DHT22;4060;49.186;9.226;2023-12-04T01:11:43;3.80;58.60
7254;DHT22;4060;49.186;9.226;2023-12-04T01:14:12;3.80;58.60
7254;DHT22;4060;49.186;9.226;2023-12-04T01:16:41;3.80;58.60
7254;DHT22;4060;49.186;9.226;2023-12-04T01:19:10;3.80;58.60
7254;DHT22;4060;49.186;9.226;2023-12-04T01:21:42;3.80;58.60
7254;DHT22;4060;49.186;9.226;2023-12-04T01:24:11;3.80;58.60
7254;DHT22;4060;49.186;9.226;2023-12-04T01:26:41;3.80;58.60
7254;DHT22;4060;49.186;9.226;2023-12-04T01:29:10;3.80;58.60
7254;DHT22;4060;49.186;9.226;2023-12-04T01:31:40;3.80;58.50
7254;DHT22;4060;49.186;9.226;2023-12-04T01:34:09;3.80;58.60
7254;DHT22;4060;49.186;9.226;2023-12-04T01:36:42;3.80;58.50
7254;DHT22;4060;49.186;9.226;2023-12-04T01:39:12;3.70;58.50
7254;DHT22;4060;49.186;9.226;2023-12-04T01:41:43;3.70;58.50
7254;DHT22;4060;49.186;9.226;2023-12-04T01:44:12;3.70;58.50
7254;DHT22;4060;49.186;9.226;2023-12-04T01:46:42;3.70;58.50
7254;DHT22;4060;49.186;9.226;2023-12-04T01:49:12;3.70;58.50
7254;DHT22;4060;49.186;9.226;2023-12-04T01:51:43;3.70;58.50
7254;DHT22;4060;49.186;9.226;2023-12-04T01:54:12;3.70;58.40
7254;DHT22;4060;49.186;9.226;2023-12-04T01:56:43;3.70;58.50
7254;DHT22;4060;49.186;9.226;2023-12-04T01:59:13;3.70;58.50
7254;DHT22;4060;49.186;9.226;2023-12-04T02:01:42;3.70;58.50
7254;DHT22;4060;49.186;9.226;2023-12-04T02:04:12;3.70;58.40
7254;DHT22;4060;49.186;9.226;2023-12-04T02:06:43;3.70;58.50
7254;DHT22;4060;49.186;9.226;2023-12-04T02:09:13;3.70;58.50
7254;DHT22;4060;49.186;9.226;2023-12-04T02:11:43;3.70;58.50
7254;DHT22;4060;49.186;9.226;2023-12-04T02:14:13;3.70;58.50
7254;DHT22;4060;49.186;9.226;2023-12-04T02:16:43;3.60;58.40
7254;DHT22;4060;49.186;9.226;2023-12-04T02:19:13;3.70;58.50
7254;DHT22;4060;49.186;9.226;2023-12-04T02:21:44;3.70;58.50
7254;DHT22;4060;49.186;9.226;2023-12-04T02:24:16;3.60;58.40
7254;DHT22;4060;49.186;9.226;2023-12-04T02:26:49;3.60;58.40
7254;DHT22;4060;49.186;9.226;2023-12-04T02:29:23;3.60;58.40
7254;DHT22;4060;49.186;9.226;2023-12-04T02:31:57;3.60;58.40
7254;DHT22;4060;49.186;9.226;2023-12-04T02:34:28;3.60;58.40
7254;DHT22;4060;49.186;9.226;2023-12-04T02:36:58;3.60;58.40
7254;DHT22;4060;49.186;9.226;2023-12-04T02:39:30;3.60;58.30
7254;DHT22;4060;49.186;9.226;2023-12-04T02:41:59;3.60;58.80
7254;DHT22;4060;49.186;9.226;2023-12-04T02:44:28;3.60;58.40
7254;DHT22;4060;49.186;9.226;2023-12-04T02:46:58;3.60;58.40
7254;DHT22;4060;49.186;9.226;2023-12-04T02:49:27;3.60;58.40
7254;DHT22;4060;49.186;9.226;2023-12-04T02:51:57;3.60;58.40
7254;DHT22;4060;49.186;9.226;2023-12-04T02:54:27;3.60;58.40
7254;DHT22;4060;49.186;9.226;2023-12-04T02:56:58;3.60;58.40
7254;DHT22;4060;49.186;9.226;2023-12-04T02:59:28;3.60;58.40
7254;DHT22;4060;49.186;9.226;2023-12-04T03:01:58;3.50;58.30
7254;DHT22;4060;49.186;9.226;2023-12-04T03:04:29;3.50;58.30
7254;DHT22;4060;49.186;9.226;2023-12-04T03:06:59;3.60;58.40
7254;DHT22;4060;49.186;9.226;2023-12-04T03:09:29;3.50;58.30
7254;DHT22;4060;49.186;9.226;2023-12-04T03:12:00;3.50;58.20
7254;DHT22;4060;49.186;9.226;2023-12-04T03:14:29;3.50;58.20
7254;DHT22;4060;49.186;9.226;2023-12-04T03:16:58;3.50;58.20
7254;DHT22;4060;49.186;9.226;2023-12-04T03:19:28;3.50;58.20
7254;DHT22;4060;49.186;9.226;2023-12-04T03:21:57;3.50;58.20
7254;DHT22;4060;49.186;9.226;2023-12-04T03:24:29;3.50;58.20
7254;DHT22;4060;49.186;9.226;2023-12-04T03:27:00;3.50;58.20
7254;DHT22;4060;49.186;9.226;2023-12-04T03:29:29;3.50;58.20
7254;DHT22;4060;49.186;9.226;2023-12-04T03:31:59;3.50;58.20
7254;DHT22;4060;49.186;9.226;2023-12-04T03:34:28;3.50;58.20
7254;DHT22;4060;49.186;9.226;2023-12-04T03:36:57;3.50;58.20
7254;DHT22;4060;49.186;9.226;2023-12-04T03:39:27;3.50;58.30
7254;DHT22;4060;49.186;9.226;2023-12-04T03:41:56;3.50;58.20
7254;DHT22;4060;49.186;9.226;2023-12-04T03:44:28;3.50;58.20
7254;DHT22;4060;49.186;9.226;2023-12-04T03:46:57;3.40;58.10
7254;DHT22;4060;49.186;9.226;2023-12-04T03:49:27;3.50;58.20
7254;DHT22;4060;49.186;9.226;2023-12-04T03:51:56;3.50;58.20
7254;DHT22;4060;49.186;9.226;2023-12-04T03:54:25;3.50;58.20
7254;DHT22;4060;49.186;9.226;2023-12-04T03:56:55;3.40;58.10
7254;DHT22;4060;49.186;9.226;2023-12-04T03:59:24;3.50;58.20
7254;DHT22;4060;49.186;9.226;2023-12-04T04:01:55;3.40;58.20
7254;DHT22;4060;49.186;9.226;2023-12-04T04:04:24;3.40;58.20
7254;DHT22;4060;49.186;9.226;2023-12-04T04:06:54;3.40;58.20
7254;DHT22;4060;49.186;9.226;2023-12-04T04:09:24;3.40;58.20
7254;DHT22;4060;49.186;9.226;2023-12-04T04:11:53;3.40;58.10
7254;DHT22;4060;49.186;9.226;2023-12-04T04:14:23;3.40;58.10
7254;DHT22;4060;49.186;9.226;2023-12-04T04:16:54;3.40;58.10
7254;DHT22;4060;49.186;9.226;2023-12-04T04:19:23;3.40;58.10
7254;DHT22;4060;49.186;9.226;2023-12-04T04:21:52;3.40;58.10
7254;DHT22;4060;49.186;9.226;2023-12-04T04:24:22;3.40;58.10
7254;DHT22;4060;49.186;9.226;2023-12-04T04:26:51;3.40;58.10
7254;DHT22;4060;49.186;9.226;2023-12-04T04:29:21;3.40;58.20
7254;DHT22;4060;49.186;9.226;2023-12-04T04:31:50;3.40;58.10
7254;DHT22;4060;49.186;9.226;2023-12-04T04:34:21;3.40;58.10
7254;DHT22;4060;49.186;9.226;2023-12-04T04:36:51;3.40;58.10
7254;DHT22;4060;49.186;9.226;2023-12-04T04:39:20;3.40;58.10
7254;DHT22;4060;49.186;9.226;2023-12-04T04:41:49;3.40;58.10
7254;DHT22;4060;49.186;9.226;2023-12-04T04:44:19;3.40;58.10
7254;DHT22;4060;49.186;9.226;2023-12-04T04:46:48;3.30;58.00
7254;DHT22;4060;49.186;9.226;2023-12-04T04:49:20;3.40;58.10
7254;DHT22;4060;49.186;9.226;2023-12-04T04:51:59;3.40;58.10
7254;DHT22;4060;49.186;9.226;2023-12-04T04:54:31;3.40;58.10
7254;DHT22;4060;49.186;9.226;2023-12-04T04:57:01;3.30;58.00
7254;DHT22;4060;49.186;9.226;2023-12-04T04:59:30;3.30;58.10
7254;DHT22;4060;49.186;9.226;2023-12-04T05:02:01;3.30;58.00
7254;DHT22;4060;49.186;9.226;2023-12-04T05:04:33;3.30;58.00
7254;DHT22;4060;49.186;9.226;2023-12-04T05:07:03;3.30;58.00
7254;DHT22;4060;49.186;9.226;2023-12-04T05:09:38;3.30;58.10
7254;DHT22;4060;49.186;9.226;2023-12-04T05:12:08;3.30;58.10
7254;DHT22;4060;49.186;9.226;2023-12-04T05:14:37;3.30;58.10
7254;DHT22;4060;49.186;9.226;2023-12-04T05:17:07;3.30;58.10
7254;DHT22;4060;49.186;9.226;2023-12-04T05:19:38;3.30;58.10
7254;DHT22;4060;49.186;9.226;2023-12-04T05:22:08;3.30;58.20
7254;DHT22;4060;49.186;9.226;2023-12-04T05:24:38;3.30;58.10
7254;DHT22;4060;49.186;9.226;2023-12-04T05:27:07;3.30;58.10
7254;DHT22;4060;49.186;9.226;2023-12-04T05:29:36;3.30;58.20
7254;DHT22;4060;49.186;9.226;2023-12-04T05:32:07;3.30;58.20
7254;DHT22;4060;49.186;9.226;2023-12-04T05:34:38;3.30;58.20
7254;DHT22;4060;49.186;9.226;2023-12-04T05:37:08;3.30;58.20
7254;DHT22;4060;49.186;9.226;2023-12-04T05:39:37;3.30;58.20
7254;DHT22;4060;49.186;9.226;2023-12-04T05:42:06;3.30;58.20
7254;DHT22;4060;49.186;9.226;2023-12-04T05:44:37;3.30;58.20
7254;DHT22;4060;49.186;9.226;2023-12-04T05:47:06;3.30;58.20
7254;DHT22;4060;49.186;9.226;2023-12-04T05:49:37;3.30;58.20
7254;DHT22;4060;49.186;9.226;2023-12-04T05:52:06;3.30;58.20
7254;DHT22;4060;49.186;9.226;2023-12-04T05:54:36;3.30;58.20
7254;DHT22;4060;49.186;9.226;2023-12-04T05:57:05;3.30;58.20
7254;DHT22;4060;49.186;9.226;2023-12-04T05:59:35;3.30;58.20
7254;DHT22;4060;49.186;9.226;2023-12-04T06:02:04;3.30;58.20
7254;DHT22;4060;49.186;9.226;2023-12-04T06:04:34;3.30;58.20
7254;DHT22;4060;49.186;9.226;2023-12-04T06:07:07;3.30;58.20
7254;DHT22;4060;49.186;9.226;2023-12-04T06:09:36;3.20;58.60
7254;DHT22;4060;49.186;9.226;2023-12-04T06:12:06;3.30;58.20
7254;DHT22;4060;49.186;9.226;2023-12-04T06:14:36;3.30;58.20
7254;DHT22;4060;49.186;9.226;2023-12-04T06:17:06;3.20;58.20
7254;DHT22;4060;49.186;9.226;2023-12-04T06:19:35;3.20;58.20
7254;DHT22;4060;49.186;9.226;2023-12-04T06:22:09;3.20;58.20
7254;DHT22;4060;49.186;9.226;2023-12-04T06:24:39;3.20;58.20
7254;DHT22;4060;49.186;9.226;2023-12-04T06:27:09;3.20;58.20
7254;DHT22;4060;49.186;9.226;2023-12-04T06:29:40;3.20;58.20
7254;DHT22;4060;49.186;9.226;2023-12-04T06:32:10;3.20;58.20
7254;DHT22;4060;49.186;9.226;2023-12-04T06:34:40;3.20;58.30
7254;DHT22;4060;49.186;9.226;2023-12-04T06:37:12;3.20;58.20
7254;DHT22;4060;49.186;9.226;2023-12-04T06:39:42;3.20;58.20
7254;DHT22;4060;49.186;9.226;2023-12-04T06:42:14;3.20;58.20
7254;DHT22;4060;49.186;9.226;2023-12-04T06:44:44;3.20;58.20
7254;DHT22;4060;49.186;9.226;2023-12-04T06:47:19;3.20;58.20
7254;DHT22;4060;49.186;9.226;2023-12-04T06:49:51;3.20;58.30
7254;DHT22;4060;49.186;9.226;2023-12-04T06:52:23;3.20;58.30
7254;DHT22;4060;49.186;9.226;2023-12-04T06:54:52;3.20;58.30
7254;DHT22;4060;49.186;9.226;2023-12-04T06:57:22;3.20;58.30
7254;DHT22;4060;49.186;9.226;2023-12-04T06:59:51;3.20;58.30
7254;DHT22;4060;49.186;9.226;2023-12-04T07:02:20;3.20;58.30
7254;DHT22;4060;49.186;9.226;2023-12-04T07:04:49;3.20;58.20
7254;DHT22;4060;49.186;9.226;2023-12-04T07:07:21;3.20;58.20
7254;DHT22;4060;49.186;9.226;2023-12-04T07:09:50;3.20;58.30
7254;DHT22;4060;49.186;9.226;2023-12-04T07:12:20;3.20;58.30
7254;DHT22;4060;49.186;9.226;2023-12-04T07:14:49;3.20;58.30
7254;DHT22;4060;49.186;9.226;2023-12-04T07:17:18;3.10;58.20
7254;DHT22;4060;49.186;9.226;2023-12-04T07:19:48;3.10;58.20
7254;DHT22;4060;49.186;9.226;2023-12-04T07:22:18;3.10;58.20
7254;DHT22;4060;49.186;9.226;2023-12-04T07:24:49;3.10;58.30
7254;DHT22;4060;49.186;9.226;2023-12-04T07:27:18;3.10;58.30
7254;DHT22;4060;49.186;9.226;2023-12-04T07:29:48;3.10;58.30
7254;DHT22;4060;49.186;9.226;2023-12-04T07:32:17;3.10;58.20
7254;DHT22;4060;49.186;9.226;2023-12-04T07:34:46;3.10;58.30
7254;DHT22;4060;49.186;9.226;2023-12-04T07:37:16;3.10;58.30
7254;DHT22;4060;49.186;9.226;2023-12-04T07:39:45;3.10;58.30
7254;DHT22;4060;49.186;9.226;2023-12-04T07:42:16;3.10;58.30
7254;DHT22;4060;49.186;9.226;2023-12-04T07:44:45;3.10;58.30
7254;DHT22;4060;49.186;9.226;2023-12-04T07:47:15;3.10;58.30
7254;DHT22;4060;49.186;9.226;2023-12-04T07:49:45;3.10;58.30
7254;DHT22;4060;49.186;9.226;2023-12-04T07:52:15;3.10;58.30
7254;DHT22;4060;49.186;9.226;2023-12-04T07:54:45;3.10;58.30
7254;DHT22;4060;49.186;9.226;2023-12-04T07:57:18;3.10;58.30
7254;DHT22;4060;49.186;9.226;2023-12-04T07:59:48;3.10;58.30
7254;DHT22;4060;49.186;9.226;2023-12-04T08:02:17;3.10;58.30
7254;DHT22;4060;49.186;9.226;2023-12-04T08:04:46;3.10;58.30
7254;DHT22;4060;49.186;9.226;2023-12-04T08:07:16;3.10;58.30
7254;DHT22;4060;49.186;9.226;2023-12-04T08:09:46;3.10;58.30
7254;DHT22;4060;49.186;9.226;2023-12-04T08:12:18;3.10;58.20
7254;DHT22;4060;49.186;9.226;2023-12-04T08:14:48;3.10;58.30
7254;DHT22;4060;49.186;9.226;2023-12-04T08:17:17;3.10;58.30
7254;DHT22;4060;49.186;9.226;2023-12-04T08:19:46;3.10;58.30
7254;DHT22;4060;49.186;9.226;2023-12-04T08:22:16;3.10;58.30
7254;DHT22;4060;49.186;9.226;2023-12-04T08:24:45;3.10;58.30
7254;DHT22;4060;49.186;9.226;2023-12-04T08:27:14;3.10;58.30
7254;DHT22;4060;49.186;9.226;2023-12-04T08:29:46;3.10;58.30
7254;DHT22;4060;49.186;9.226;2023-12-04T08:32:15;3.10;58.30
7254;DHT22;4060;49.186;9.226;2023-12-04T08:34:45;3.10;58.30
7254;DHT22;4060;49.186;9.226;2023-12-04T08:37:15;3.10;58.30
7254;DHT22;4060;49.186;9.226;2023-12-04T08:39:46;3.10;58.30
7254;DHT22;4060;49.186;9.226;2023-12-04T08:42:15;3.10;58.30
7254;DHT22;4060;49.186;9.226;2023-12-04T08:44:47;3.10;58.30
7254;DHT22;4060;49.186;9.226;2023-12-04T08:47:16;3.10;58.30
7254;DHT22;4060;49.186;9.226;2023-12-04T08:49:46;3.10;58.40
7254;DHT22;4060;49.186;9.226;2023-12-04T08:52:15;3.20;58.50
7254;DHT22;4060;49.186;9.226;2023-12-04T08:54:45;3.20;58.50
7254;DHT22;4060;49.186;9.226;2023-12-04T08:57:14;3.20;58.50
7254;DHT22;4060;49.186;9.226;2023-12-04T08:59:43;3.20;58.50
7254;DHT22;4060;49.186;9.226;2023-12-04T09:02:15;3.20;58.50
7254;DHT22;4060;49.186;9.226;2023-12-04T09:04:45;3.20;58.50
7254;DHT22;4060;49.186;9.226;2023-12-04T09:07:14;3.20;58.50
7254;DHT22;4060;49.186;9.226;2023-12-04T09:09:44;3.20;58.60
7254;DHT22;4060;49.186;9.226;2023-12-04T09:12:14;3.20;58.60
7254;DHT22;4060;49.186;9.226;2023-12-04T09:14:43;3.20;58.60
7254;DHT22;4060;49.186;9.226;2023-12-04T09:17:16;3.20;58.60
7254;DHT22;4060;49.186;9.226;2023-12-04T09:19:46;3.20;58.60
7254;DHT22;4060;49.186;9.226;2023-12-04T09:22:16;3.20;58.60
7254;DHT22;4060;49.186;9.226;2023-12-04T09:24:45;3.20;58.70
7254;DHT22;4060;49.186;9.226;2023-12-04T09:27:15;3.20;58.60
7254;DHT22;4060;49.186;9.226;2023-12-04T09:29:45;3.20;58.50
7254;DHT22;4060;49.186;9.226;2023-12-04T09:32:17;3.20;58.50
7254;DHT22;4060;49.186;9.226;2023-12-04T09:34:48;3.20;58.60
7254;DHT22;4060;49.186;9.226;2023-12-04T09:37:18;3.20;58.60
7254;DHT22;4060;49.186;9.226;2023-12-04T09:39:47;3.20;58.60
7254;DHT22;4060;49.186;9.226;2023-12-04T09:42:17;3.20;58.60
7254;DHT22;4060;49.186;9.226;2023-12-04T09:44:48;3.20;58.70
7254;DHT22;4060;49.186;9.226;2023-12-04T09:47:20;3.20;58.70
7254;DHT22;4060;49.186;9.226;2023-12-04T09:49:52;3.20;58.70
7254;DHT22;4060;49.186;9.226;2023-12-04T09:52:23;3.20;58.70
7254;DHT22;4060;49.186;9.226;2023-12-04T09:54:52;3.20;58.70
7254;DHT22;4060;49.186;9.226;2023-12-04T09:57:23;3.20;58.80
7254;DHT22;4060;49.186;9.226;2023-12-04T09:59:52;3.30;58.80
7254;DHT22;4060;49.186;9.226;2023-12-04T10:02:24;3.30;58.80
7254;DHT22;4060;49.186;9.226;2023-12-04T10:04:53;3.30;59.40
7254;DHT22;4060;49.186;9.226;2023-12-04T10:07:23;3.30;58.90
7254;DHT22;4060;49.186;9.226;2023-12-04T10:09:54;3.30;58.90
7254;DHT22;4060;49.186;9.226;2023-12-04T10:12:24;3.30;58.90
7254;DHT22;4060;49.186;9.226;2023-12-04T10:15:07;3.30;58.90
7254;DHT22;4060;49.186;9.226;2023-12-04T10:17:41;3.30;58.90
7254;DHT22;4060;49.186;9.226;2023-12-04T10:20:12;3.30;58.90
7254;DHT22;4060;49.186;9.226;2023-12-04T10:22:54;3.30;58.90
7254;DHT22;4060;49.186;9.226;2023-12-04T10:25:24;3.30;58.90
7254;DHT22;4060;49.186;9.226;2023-12-04T10:27:56;3.30;58.90
7254;DHT22;4060;49.186;9.226;2023-12-04T10:30:36;3.30;58.90
7254;DHT22;4060;49.186;9.226;2023-12-04T10:33:09;3.30;58.90
7254;DHT22;4060;49.186;9.226;2023-12-04T10:35:39;3.30;58.90
7254;DHT22;4060;49.186;9.226;2023-12-04T10:38:09;3.30;58.80
7254;DHT22;4060;49.186;9.226;2023-12-04T10:40:38;3.30;58.90
7254;DHT22;4060;49.186;9.226;2023-12-04T10:43:16;3.30;58.90
7254;DHT22;4060;49.186;9.226;2023-12-04T10:45:46;3.30;58.90
7254;DHT22;4060;49.186;9.226;2023-12-04T10:48:18;3.30;58.90
7254;DHT22;4060;49.186;9.226;2023-12-04T10:50:48;3.30;58.90
7254;DHT22;4060;49.186;9.226;2023-12-04T10:53:25;3.30;59.40
7254;DHT22;4060;49.186;9.226;2023-12-04T10:55:56;3.30;58.90
7254;DHT22;4060;49.186;9.226;2023-12-04T10:58:29;3.30;58.90
7254;DHT22;4060;49.186;9.226;2023-12-04T11:00:59;3.40;59.00
7254;DHT22;4060;49.186;9.226;2023-12-04T11:03:34;3.30;58.90
7254;DHT22;4060;49.186;9.226;2023-12-04T11:06:07;3.40;59.00
7254;DHT22;4060;49.186;9.226;2023-12-04T11:08:40;3.40;58.90
7254;DHT22;4060;49.186;9.226;2023-12-04T11:11:14;3.40;59.00
7254;DHT22;4060;49.186;9.226;2023-12-04T11:13:49;3.40;59.00
7254;DHT22;4060;49.186;9.226;2023-12-04T11:16:26;3.40;59.00
7254;DHT22;4060;49.186;9.226;2023-12-04T11:19:04;3.40;59.00
7254;DHT22;4060;49.186;9.226;2023-12-04T11:21:37;3.40;59.20
7254;DHT22;4060;49.186;9.226;2023-12-04T11:24:08;3.40;59.00
7254;DHT22;4060;49.186;9.226;2023-12-04T11:26:41;3.40;59.00
7254;DHT22;4060;49.186;9.226;2023-12-04T11:29:12;3.40;59.10
7254;DHT22;4060;49.186;9.226;2023-12-04T11:31:42;3.40;59.10
7254;DHT22;4060;49.186;9.226;2023-12-04T11:34:14;3.40;59.10
7254;DHT22;4060;49.186;9.226;2023-12-04T11:36:45;3.50;59.20
7254;DHT22;4060;49.186;9.226;2023-12-04T11:39:15;3.50;59.20
7254;DHT22;4060;49.186;9.226;2023-12-04T11:41:46;3.50;59.30
7254;DHT22;4060;49.186;9.226;2023-12-04T11:44:15;3.50;59.30
7254;DHT22;4060;49.186;9.226;2023-12-04T11:47:05;3.50;59.30
7254;DHT22;4060;49.186;9.226;2023-12-04T11:49:38;3.50;59.40
7254;DHT22;4060;49.186;9.226;2023-12-04T11:52:10;3.50;59.40
7254;DHT22;4060;49.186;9.226;2023-12-04T11:55:03;3.50;59.50
7254;DHT22;4060;49.186;9.226;2023-12-04T11:57:36;3.50;59.60
7254;DHT22;4060;49.186;9.226;2023-12-04T12:00:20;3.50;59.50
7254;DHT22;4060;49.186;9.226;2023-12-04T12:03:06;3.50;59.60
7254;DHT22;4060;49.186;9.226;2023-12-04T12:05:38;3.50;59.70
7254;DHT22;4060;49.186;9.226;2023-12-04T12:08:09;3.50;59.70
7254;DHT22;4060;49.186;9.226;2023-12-04T12:10:38;3.50;59.80
7254;DHT22;4060;49.186;9.226;2023-12-04T12:13:08;3.50;59.80
7254;DHT22;4060;49.186;9.226;2023-12-04T12:15:41;3.50;59.80
7254;DHT22;4060;49.186;9.226;2023-12-04T12:18:19;3.60;60.00
7254;DHT22;4060;49.186;9.226;2023-12-04T12:20:55;3.60;60.00
7254;DHT22;4060;49.186;9.226;2023-12-04T12:23:26;3.60;60.00
7254;DHT22;4060;49.186;9.226;2023-12-04T12:25:56;3.60;60.00
7254;DHT22;4060;49.186;9.226;2023-12-04T12:28:25;3.60;60.10
7254;DHT22;4060;49.186;9.226;2023-12-04T12:30:55;3.60;60.10
7254;DHT22;4060;49.186;9.226;2023-12-04T12:33:24;3.60;60.10
7254;DHT22;4060;49.186;9.226;2023-12-04T12:35:55;3.60;60.10
7254;DHT22;4060;49.186;9.226;2023-12-04T12:38:25;3.60;60.30
7254;DHT22;4060;49.186;9.226;2023-12-04T12:40:54;3.60;60.40
7254;DHT22;4060;49.186;9.226;2023-12-04T12:43:29;3.60;60.40
7254;DHT22;4060;49.186;9.226;2023-12-04T12:45:58;3.60;60.50
7254;DHT22;4060;49.186;9.226;2023-12-04T12:48:33;3.60;60.50
7254;DHT22;4060;49.186;9.226;2023-12-04T12:51:06;3.60;61.30
7254;DHT22;4060;49.186;9.226;2023-12-04T12:53:38;3.60;60.60
7254;DHT22;4060;49.186;9.226;2023-12-04T12:56:08;3.60;60.70
7254;DHT22;4060;49.186;9.226;2023-12-04T12:58:37;3.70;60.90
7254;DHT22;4060;49.186;9.226;2023-12-04T13:01:10;3.70;61.10
7254;DHT22;4060;49.186;9.226;2023-12-04T13:03:40;3.70;61.10
7254;DHT22;4060;49.186;9.226;2023-12-04T13:06:11;3.70;61.20
7254;DHT22;4060;49.186;9.226;2023-12-04T13:08:41;3.70;61.30
7254;DHT22;4060;49.186;9.226;2023-12-04T13:11:10;3.70;61.30
7254;DHT22;4060;49.186;9.226;2023-12-04T13:13:40;3.70;61.40
7254;DHT22;4060;49.186;9.226;2023-12-04T13:16:10;3.70;61.50
7254;DHT22;4060;49.186;9.226;2023-12-04T13:18:39;3.70;61.50
7254;DHT22;4060;49.186;9.226;2023-12-04T13:21:12;3.70;61.60
7254;DHT22;4060;49.186;9.226;2023-12-04T13:23:41;3.70;61.80
7254;DHT22;4060;49.186;9.226;2023-12-04T13:26:10;3.70;61.80
7254;DHT22;4060;49.186;9.226;2023-12-04T13:28:38;3.70;61.80
7254;DHT22;4060;49.186;9.226;2023-12-04T13:31:07;3.80;61.90
7254;DHT22;4060;49.186;9.226;2023-12-04T13:33:37;3.80;62.00
7254;DHT22;4060;49.186;9.226;2023-12-04T13:36:07;3.80;62.20
7254;DHT22;4060;49.186;9.226;2023-12-04T13:38:39;3.80;62.20
7254;DHT22;4060;49.186;9.226;2023-12-04T13:41:08;3.80;62.30
7254;DHT22;4060;49.186;9.226;2023-12-04T13:43:57;3.80;62.30
7254;DHT22;4060;49.186;9.226;2023-12-04T13:46:27;3.80;62.40
7254;DHT22;4060;49.186;9.226;2023-12-04T13:48:57;3.80;62.40
7254;DHT22;4060;49.186;9.226;2023-12-04T13:51:28;3.80;62.40
7254;DHT22;4060;49.186;9.226;2023-12-04T13:54:00;3.80;62.50
7254;DHT22;4060;49.186;9.226;2023-12-04T13:56:42;3.80;62.70
7254;DHT22;4060;49.186;9.226;2023-12-04T13:59:21;3.80;62.60
7254;DHT22;4060;49.186;9.226;2023-12-04T14:01:51;3.80;62.60
7254;DHT22;4060;49.186;9.226;2023-12-04T14:04:23;3.80;62.70
7254;DHT22;4060;49.186;9.226;2023-12-04T14:06:54;3.80;62.80
7254;DHT22;4060;49.186;9.226;2023-12-04T14:09:26;3.80;62.80
7254;DHT22;4060;49.186;9.226;2023-12-04T14:11:55;3.80;62.90
7254;DHT22;4060;49.186;9.226;2023-12-04T14:14:25;3.80;62.80
7254;DHT22;4060;49.186;9.226;2023-12-04T14:16:54;3.80;63.00
7254;DHT22;4060;49.186;9.226;2023-12-04T14:19:24;3.80;63.00
7254;DHT22;4060;49.186;9.226;2023-12-04T14:21:53;3.90;63.10
7254;DHT22;4060;49.186;9.226;2023-12-04T14:24:25;3.90;63.20
7254;DHT22;4060;49.186;9.226;2023-12-04T14:26:55;3.90;63.30
7254;DHT22;4060;49.186;9.226;2023-12-04T14:29:24;3.90;63.30
7254;DHT22;4060;49.186;9.226;2023-12-04T14:31:53;3.90;63.40
7254;DHT22;4060;49.186;9.226;2023-12-04T14:34:22;3.90;63.30
7254;DHT22;4060;49.186;9.226;2023-12-04T14:36:52;3.90;63.40
7254;DHT22;4060;49.186;9.226;2023-12-04T14:39:24;3.90;63.50
7254;DHT22;4060;49.186;9.226;2023-12-04T14:41:54;3.90;64.10
7254;DHT22;4060;49.186;9.226;2023-12-04T14:44:23;4.10;66.20
7254;DHT22;4060;49.186;9.226;2023-12-04T14:46:54;4.30;68.10
7254;DHT22;4060;49.186;9.226;2023-12-04T14:49:25;4.50;69.40
7254;DHT22;4060;49.186;9.226;2023-12-04T14:51:54;4.80;70.60
7254;DHT22;4060;49.186;9.226;2023-12-04T14:54:25;5.00;71.20
7254;DHT22;4060;49.186;9.226;2023-12-04T14:57:05;5.30;71.50
7254;DHT22;4060;49.186;9.226;2023-12-04T15:00:17;5.50;71.80
7254;DHT22;4060;49.186;9.226;2023-12-04T15:03:03;5.80;71.70
7254;DHT22;4060;49.186;9.226;2023-12-04T15:05:45;6.00;71.70
7254;DHT22;4060;49.186;9.226;2023-12-04T15:08:47;6.10;71.60
7254;DHT22;4060;49.186;9.226;2023-12-04T15:11:31;6.30;71.50
7254;DHT22;4060;49.186;9.226;2023-12-04T15:14:21;6.40;71.50
7254;DHT22;4060;49.186;9.226;2023-12-04T15:17:00;6.50;71.50
7254;DHT22;4060;49.186;9.226;2023-12-04T15:19:45;6.60;71.50
7254;DHT22;4060;49.186;9.226;2023-12-04T15:22:45;6.60;71.30
7254;DHT22;4060;49.186;9.226;2023-12-04T15:25:15;6.70;71.20
7254;DHT22;4060;49.186;9.226;2023-12-04T15:27:46;6.70;71.20
7254;DHT22;4060;49.186;9.226;2023-12-04T15:30:16;6.70;71.20
7254;DHT22;4060;49.186;9.226;2023-12-04T15:32:44;6.80;71.20
7254;DHT22;4060;49.186;9.226;2023-12-04T15:35:13;6.80;71.20
7254;DHT22;4060;49.186;9.226;2023-12-04T15:37:41;6.80;71.20
7254;DHT22;4060;49.186;9.226;2023-12-04T15:40:11;6.80;71.10
7254;DHT22;4060;49.186;9.226;2023-12-04T15:42:38;6.80;71.00
7254;DHT22;4060;49.186;9.226;2023-12-04T15:45:10;6.80;71.00
7254;DHT22;4060;49.186;9.226;2023-12-04T15:47:39;6.80;71.00
7254;DHT22;4060;49.186;9.226;2023-12-04T15:50:08;6.80;70.90
7254;DHT22;4060;49.186;9.226;2023-12-04T15:52:37;6.80;70.90
7254;DHT22;4060;49.186;9.226;2023-12-04T15:55:07;6.80;70.80
7254;DHT22;4060;49.186;9.226;2023-12-04T15:57:39;6.80;70.90
7254;DHT22;4060;49.186;9.226;2023-12-04T16:00:10;6.80;70.90
7254;DHT22;4060;49.186;9.226;2023-12-04T16:02:42;6.80;71.00
7254;DHT22;4060;49.186;9.226;2023-12-04T16:05:11;6.80;71.00
7254;DHT22;4060;49.186;9.226;2023-12-04T16:07:41;6.80;70.90
7254;DHT22;4060;49.186;9.226;2023-12-04T16:10:11;6.80;70.90
7254;DHT22;4060;49.186;9.226;2023-12-04T16:12:41;6.70;70.90
7254;DHT22;4060;49.186;9.226;2023-12-04T16:15:13;6.70;70.90
7254;DHT22;4060;49.186;9.226;2023-12-04T16:17:44;6.70;71.00
7254;DHT22;4060;49.186;9.226;2023-12-04T16:20:13;6.70;71.00
7254;DHT22;4060;49.186;9.226;2023-12-04T16:22:43;6.70;71.00
7254;DHT22;4060;49.186;9.226;2023-12-04T16:25:12;6.60;70.90
7254;DHT22;4060;49.186;9.226;2023-12-04T16:27:44;6.60;71.00
7254;DHT22;4060;49.186;9.226;2023-12-04T16:30:16;6.60;71.00
7254;DHT22;4060;49.186;9.226;2023-12-04T16:32:46;6.60;71.00
7254;DHT22;4060;49.186;9.226;2023-12-04T16:35:16;6.60;71.10
7254;DHT22;4060;49.186;9.226;2023-12-04T16:37:45;6.60;71.10
7254;DHT22;4060;49.186;9.226;2023-12-04T16:40:15;6.50;71.80
7254;DHT22;4060;49.186;9.226;2023-12-04T16:42:45;6.50;71.00